Seaforth, Canada
Current Conditions -  °F | °C
As of 7:00 PM on Saturday 22 Nov 2014 (Local Time) from CYXU Reporting Station
Rain Showers Rain Showers  
Wind Chill: 35°   Ceiling: 1600
Heat Index: 41°   Visibility: 5mi
Dew Point: 39°   Wind: 10mph
Humidity: 93%   Direction: 220°SW
Pressure: 29.95"   Gusts: 17mph
Location:  43.55°N, 81.38°W
Report Text: CYXU 230000Z 22009G15KT 5SM -SHRA BR SCT008 OVC016 05/04 A2995 RMK SF3SC5 CVCTV CLD ASOCTD SLP149
Loading
Personal Weather Stations






























Interactive Weather Map New forecast layout! Learn more

10-Day Weather Forecast

Advertisements
Track Severe Weather on mobile